createdAt,value
2019-03-04T00:02:07.633Z,15.57
2019-03-04T00:04:39.702Z,13.93
2019-03-04T00:07:11.554Z,17.23
2019-03-04T00:09:44.055Z,11.03
2019-03-04T00:12:15.942Z,13.33
2019-03-04T00:14:47.948Z,13.40
2019-03-04T00:17:19.875Z,20.23
2019-03-04T00:19:51.758Z,13.23
2019-03-04T00:22:24.731Z,18.90
2019-03-04T00:24:56.683Z,12.33
2019-03-04T00:27:28.556Z,17.53
2019-03-04T00:30:00.522Z,10.73
2019-03-04T00:32:32.744Z,14.17
2019-03-04T00:35:05.007Z,11.07
2019-03-04T00:37:36.771Z,17.30
2019-03-04T00:40:10.449Z,9.13
2019-03-04T00:42:42.212Z,13.03
2019-03-04T00:45:14.193Z,11.77
2019-03-04T00:47:45.960Z,14.93
2019-03-04T00:50:18.124Z,11.33
2019-03-04T00:52:49.903Z,17.73
2019-03-04T00:55:21.953Z,13.63
2019-03-04T00:57:53.739Z,12.17
2019-03-04T01:00:26.263Z,14.47
2019-03-04T01:02:58.030Z,16.77
2019-03-04T01:05:29.905Z,11.13
2019-03-04T01:08:01.644Z,8.33
2019-03-04T01:10:33.827Z,14.43
2019-03-04T01:13:05.915Z,14.60
2019-03-04T01:15:38.050Z,15.03
2019-03-04T01:18:09.798Z,9.27
2019-03-04T01:20:41.865Z,7.47
2019-03-04T01:23:13.605Z,13.53
2019-03-04T01:25:45.449Z,13.60
2019-03-04T01:28:17.252Z,12.63
2019-03-04T01:30:49.321Z,13.37
2019-03-04T01:33:21.253Z,12.07
2019-03-04T01:35:53.342Z,14.37
2019-03-04T01:38:25.120Z,15.40
2019-03-04T01:40:57.175Z,14.53
2019-03-04T01:43:28.954Z,8.60
2019-03-04T01:46:01.002Z,22.23
2019-03-04T01:48:32.769Z,15.67
2019-03-04T01:51:04.750Z,17.97
2019-03-04T01:53:36.516Z,10.63
2019-03-04T01:56:08.665Z,15.57
2019-03-04T01:58:40.453Z,12.27
2019-03-04T02:01:12.245Z,5.10
2019-03-04T02:03:44.001Z,13.67
2019-03-04T02:06:16.003Z,14.70
2019-03-04T02:08:47.763Z,8.87
2019-03-04T02:11:19.935Z,11.93
2019-03-04T02:13:51.741Z,17.40
2019-03-04T02:16:23.847Z,12.83
2019-03-04T02:18:55.604Z,10.57
2019-03-04T02:21:27.786Z,18.40
2019-03-04T02:24:19.162Z,9.60
2019-03-04T02:26:51.276Z,13.50
2019-03-04T02:29:23.088Z,11.03
2019-03-04T02:31:55.088Z,10.87
2019-03-04T02:34:26.830Z,10.60
2019-03-04T02:36:58.918Z,13.03
2019-03-04T02:39:30.723Z,11.40
2019-03-04T02:42:02.892Z,7.13
2019-03-04T02:44:34.722Z,8.87
2019-03-04T02:47:06.754Z,9.17
2019-03-04T02:49:38.522Z,6.83
2019-03-04T02:52:10.588Z,6.77
2019-03-04T02:54:42.320Z,7.87
2019-03-04T02:57:14.338Z,7.87
2019-03-04T02:59:46.089Z,8.67
2019-03-04T03:02:17.891Z,12.87
2019-03-04T03:04:49.658Z,10.00
2019-03-04T03:07:22.799Z,8.50
2019-03-04T03:09:55.875Z,8.73
2019-03-04T03:12:28.455Z,7.97
2019-03-04T03:15:00.451Z,9.07
2019-03-04T03:17:32.907Z,10.47
2019-03-04T03:20:04.868Z,11.70
2019-03-04T03:22:36.925Z,7.60
2019-03-04T03:25:09.218Z,5.23
2019-03-04T03:27:41.321Z,14.63
2019-03-04T03:30:13.394Z,12.93
2019-03-04T03:32:45.215Z,9.83
2019-03-04T03:35:17.055Z,8.47
2019-03-04T03:37:48.886Z,5.77
2019-03-04T03:40:20.785Z,13.13
2019-03-04T03:42:52.623Z,8.77
2019-03-04T03:45:24.349Z,9.00
2019-03-04T03:47:56.216Z,8.50
2019-03-04T03:50:27.946Z,5.73
2019-03-04T03:53:00.089Z,6.77
2019-03-04T03:55:32.793Z,9.13
2019-03-04T03:58:05.023Z,6.43
2019-03-04T04:00:36.759Z,7.70
2019-03-04T04:03:08.852Z,7.40
2019-03-04T04:05:40.580Z,9.27
2019-03-04T04:08:12.355Z,10.13
2019-03-04T04:10:44.101Z,5.30
2019-03-04T04:13:16.361Z,6.43
2019-03-04T04:15:48.211Z,6.17
2019-03-04T04:18:20.321Z,6.20
2019-03-04T04:20:52.139Z,7.57
2019-03-04T04:23:24.253Z,6.10
2019-03-04T04:25:56.024Z,9.20
2019-03-04T04:28:28.717Z,9.97
2019-03-04T04:31:00.609Z,6.43
2019-03-04T04:33:32.619Z,10.03
2019-03-04T04:36:04.441Z,4.83
2019-03-04T04:38:36.249Z,8.20
2019-03-04T04:41:08.039Z,7.60
2019-03-04T04:43:39.790Z,13.57
2019-03-04T04:46:11.579Z,7.67
2019-03-04T04:48:44.373Z,6.10
2019-03-04T04:51:16.148Z,7.60
2019-03-04T04:53:48.080Z,9.73
2019-03-04T04:56:19.852Z,7.23
2019-03-04T04:58:52.051Z,5.97
2019-03-04T05:01:23.772Z,10.13
2019-03-04T05:03:55.765Z,8.80
2019-03-04T05:06:27.534Z,7.40
2019-03-04T05:08:59.801Z,8.80
2019-03-04T05:11:31.625Z,8.60
2019-03-04T05:14:04.033Z,5.57
2019-03-04T05:16:35.800Z,5.90
2019-03-04T05:19:07.864Z,5.07
2019-03-04T05:21:39.616Z,10.03
2019-03-04T05:24:11.624Z,3.77
2019-03-04T05:26:43.354Z,8.17
2019-03-04T05:29:15.454Z,5.07
2019-03-04T05:31:47.198Z,6.93
2019-03-04T05:34:19.237Z,6.73
2019-03-04T05:36:50.989Z,8.00
2019-03-04T05:39:22.926Z,8.37
2019-03-04T05:41:54.704Z,7.67
2019-03-04T05:44:26.899Z,6.03
2019-03-04T05:46:58.665Z,4.63
2019-03-04T05:49:30.557Z,10.87
2019-03-04T05:52:02.342Z,8.60
2019-03-04T05:54:34.534Z,7.07
2019-03-04T05:57:06.415Z,6.17
2019-03-04T05:59:39.036Z,7.03
2019-03-04T06:02:12.384Z,8.47
2019-03-04T06:04:47.099Z,7.20
2019-03-04T06:07:37.697Z,8.63
2019-03-04T06:10:13.063Z,3.60
2019-03-04T06:12:44.847Z,5.70
2019-03-04T06:15:19.438Z,3.50
2019-03-04T06:17:51.333Z,6.93
2019-03-04T06:20:23.455Z,7.60
2019-03-04T06:22:55.265Z,5.57
2019-03-04T06:25:28.728Z,6.77
2019-03-04T06:28:01.757Z,7.97
2019-03-04T06:30:34.172Z,9.37
2019-03-04T06:33:06.013Z,9.60
2019-03-04T06:35:37.890Z,7.10
2019-03-04T06:38:09.700Z,8.07
2019-03-04T06:40:41.861Z,4.30
2019-03-04T06:43:13.649Z,7.63
2019-03-04T06:45:46.067Z,7.33
2019-03-04T06:48:17.905Z,7.93
2019-03-04T06:50:52.552Z,5.53
2019-03-04T06:53:53.111Z,3.40
2019-03-04T06:57:00.025Z,4.33
2019-03-04T07:00:37.046Z,6.50
2019-03-04T07:03:23.116Z,8.47
2019-03-04T07:05:55.572Z,3.97
2019-03-04T07:09:16.603Z,4.37
2019-03-04T07:11:53.027Z,4.23
2019-03-04T07:14:25.191Z,6.80
2019-03-04T07:16:57.127Z,4.50
2019-03-04T07:19:35.052Z,9.47
2019-03-04T07:22:06.921Z,6.53
2019-03-04T07:24:38.994Z,6.70
2019-03-04T07:27:10.789Z,4.73
2019-03-04T07:29:42.920Z,5.27
2019-03-04T07:32:14.700Z,5.57
2019-03-04T07:34:46.877Z,4.07
2019-03-04T07:37:18.789Z,6.90
2019-03-04T07:39:50.856Z,5.37
2019-03-04T07:42:22.655Z,7.63
2019-03-04T07:44:54.597Z,5.07
2019-03-04T07:47:26.351Z,7.70
2019-03-04T07:49:58.511Z,5.30
2019-03-04T07:52:30.310Z,6.10
2019-03-04T07:55:02.243Z,4.00
2019-03-04T07:57:34.063Z,8.17
2019-03-04T08:00:06.952Z,5.57
2019-03-04T08:02:38.830Z,8.73
2019-03-04T08:05:11.808Z,5.33
2019-03-04T08:07:50.091Z,7.07
2019-03-04T08:11:21.817Z,7.57
2019-03-04T08:13:59.260Z,7.47
2019-03-04T08:16:31.365Z,7.10
2019-03-04T08:19:03.279Z,7.27
2019-03-04T08:21:35.456Z,10.70
2019-03-04T08:24:07.285Z,7.20
2019-03-04T08:26:39.868Z,8.37
2019-03-04T08:29:12.216Z,6.03
2019-03-04T08:31:45.558Z,7.17
2019-03-04T08:34:17.427Z,4.97
2019-03-04T08:36:49.800Z,6.93
2019-03-04T08:39:23.005Z,9.37
2019-03-04T08:41:55.081Z,12.83
2019-03-04T08:44:26.868Z,8.70
2019-03-04T08:46:58.812Z,6.63
2019-03-04T08:49:30.639Z,8.40
2019-03-04T08:52:02.812Z,6.00
2019-03-04T08:54:34.636Z,9.93
2019-03-04T08:57:06.975Z,13.50
2019-03-04T08:59:38.984Z,7.57
2019-03-04T09:02:11.457Z,8.93
2019-03-04T09:04:43.982Z,7.83
2019-03-04T09:07:16.190Z,12.30
2019-03-04T09:09:48.026Z,8.17
2019-03-04T09:12:20.109Z,6.03
2019-03-04T09:14:52.169Z,7.33
2019-03-04T09:17:25.416Z,3.47
2019-03-04T09:19:57.433Z,6.10
2019-03-04T09:22:29.903Z,6.00
2019-03-04T09:25:02.072Z,4.83
2019-03-04T09:27:34.110Z,8.13
2019-03-04T09:30:07.355Z,5.97
2019-03-04T09:32:39.861Z,6.90
2019-03-04T09:35:14.560Z,6.20
2019-03-04T09:37:47.104Z,6.37
2019-03-04T09:40:19.020Z,7.10
2019-03-04T09:42:50.973Z,6.67
2019-03-04T09:45:24.066Z,5.53
2019-03-04T09:47:56.406Z,9.07
2019-03-04T09:50:28.193Z,7.60
2019-03-04T09:53:00.721Z,10.70
2019-03-04T09:55:32.589Z,6.10
2019-03-04T09:58:04.554Z,6.97
2019-03-04T10:00:40.655Z,6.00
2019-03-04T10:04:04.697Z,7.60
2019-03-04T10:07:28.827Z,6.03
2019-03-04T10:10:44.880Z,16.93
2019-03-04T10:14:06.423Z,4.93
2019-03-04T10:17:02.184Z,6.13
2019-03-04T10:20:16.363Z,5.47
2019-03-04T10:23:56.109Z,7.70
2019-03-04T10:27:35.859Z,7.13
2019-03-04T10:30:41.514Z,4.77
2019-03-04T10:34:32.058Z,4.60
2019-03-04T10:37:51.794Z,3.33
2019-03-04T10:41:01.027Z,4.83
2019-03-04T10:44:42.990Z,4.07
2019-03-04T10:47:14.748Z,7.03
2019-03-04T10:49:46.830Z,6.10
2019-03-04T10:52:18.974Z,6.67
2019-03-04T10:54:51.056Z,7.63
2019-03-04T10:57:22.865Z,5.30
2019-03-04T10:59:54.974Z,3.87
2019-03-04T11:02:26.779Z,7.13
2019-03-04T11:04:58.809Z,5.00
2019-03-04T11:07:30.641Z,7.63
2019-03-04T11:10:02.935Z,7.00
2019-03-04T11:12:35.138Z,6.90
2019-03-04T11:15:18.063Z,5.63
2019-03-04T11:17:49.928Z,5.80
2019-03-04T11:20:21.898Z,4.87
2019-03-04T11:22:53.742Z,7.20
2019-03-04T11:25:25.795Z,4.97
2019-03-04T11:27:57.783Z,7.07
2019-03-04T11:30:31.245Z,4.03
2019-03-04T11:33:03.186Z,4.93
2019-03-04T11:35:35.477Z,4.50
2019-03-04T11:38:23.982Z,5.27
2019-03-04T11:40:56.029Z,2.07
2019-03-04T11:43:27.891Z,8.50
2019-03-04T11:46:00.012Z,8.70
2019-03-04T11:48:31.788Z,4.87
2019-03-04T11:51:03.838Z,5.60
2019-03-04T11:53:35.698Z,4.40
2019-03-04T11:56:08.166Z,3.30
2019-03-04T11:58:40.193Z,3.50
2019-03-04T12:01:31.083Z,7.03
2019-03-04T12:04:02.933Z,5.00
2019-03-04T12:06:35.809Z,4.23
2019-03-04T12:09:15.571Z,5.07
2019-03-04T12:11:47.447Z,4.87
2019-03-04T12:14:19.295Z,4.10
2019-03-04T12:16:51.325Z,3.87
2019-03-04T12:19:23.298Z,5.30
2019-03-04T12:21:55.364Z,7.13
2019-03-04T12:24:27.228Z,4.77
2019-03-04T12:26:59.705Z,4.80
2019-03-04T12:29:31.604Z,5.37
2019-03-04T12:32:25.080Z,5.03
2019-03-04T12:34:56.887Z,4.87
2019-03-04T12:37:28.854Z,4.43
2019-03-04T12:40:00.678Z,9.57
2019-03-04T12:51:23.244Z,5.70
2019-03-04T12:53:52.053Z,5.50
2019-03-04T12:56:24.078Z,5.07
2019-03-04T12:58:56.187Z,6.00
2019-03-04T13:01:28.265Z,6.30
2019-03-04T13:04:00.082Z,4.40
2019-03-04T13:06:32.078Z,5.37
2019-03-04T13:09:14.220Z,4.83
2019-03-04T13:11:41.102Z,4.40
2019-03-04T13:14:13.214Z,5.10
2019-03-04T13:16:45.138Z,6.10
2019-03-04T13:19:17.381Z,7.97
2019-03-04T13:21:49.440Z,6.07
2019-03-04T13:24:21.310Z,4.47
2019-03-04T13:26:53.281Z,5.27
2019-03-04T13:29:25.705Z,5.33
2019-03-04T13:31:57.709Z,3.93
2019-03-04T13:34:29.478Z,4.47
2019-03-04T13:37:01.540Z,4.70
2019-03-04T13:39:33.366Z,4.60
2019-03-04T13:42:05.964Z,4.17
2019-03-04T13:44:37.747Z,2.90
2019-03-04T13:47:09.658Z,3.63
2019-03-04T13:49:41.595Z,4.40
2019-03-04T13:52:15.069Z,6.67
2019-03-04T13:54:46.857Z,4.27
2019-03-04T13:57:19.085Z,3.17
2019-03-04T13:59:51.133Z,6.93
2019-03-04T14:02:23.101Z,3.57
2019-03-04T14:04:54.953Z,4.50
2019-03-04T14:07:27.142Z,5.00
2019-03-04T14:09:59.028Z,3.37
2019-03-04T14:12:31.091Z,5.13
2019-03-04T14:15:03.303Z,4.37
2019-03-04T14:17:36.429Z,5.90
2019-03-04T14:20:09.507Z,3.23
2019-03-04T14:22:41.371Z,4.27
2019-03-04T14:25:13.412Z,5.90
2019-03-04T14:27:45.506Z,4.40
2019-03-04T14:30:18.320Z,5.07
2019-03-04T14:32:50.476Z,3.67
2019-03-04T14:35:22.456Z,4.80
2019-03-04T14:37:54.557Z,5.33
2019-03-04T14:40:26.369Z,4.17
2019-03-04T14:42:58.433Z,5.10
2019-03-04T14:45:30.555Z,6.30
2019-03-04T14:48:02.775Z,6.50
2019-03-04T14:50:34.619Z,5.83
2019-03-04T14:53:06.786Z,6.07
2019-03-04T14:55:38.740Z,4.53
2019-03-04T14:58:10.648Z,4.83
2019-03-04T15:00:44.112Z,7.70
2019-03-04T15:03:23.227Z,7.37
2019-03-04T15:05:49.800Z,4.40
2019-03-04T15:08:21.968Z,6.97
2019-03-04T15:10:53.999Z,3.83
2019-03-04T15:13:26.317Z,5.33
2019-03-04T15:16:01.445Z,5.37
2019-03-04T15:18:32.173Z,5.30
2019-03-04T15:21:04.432Z,2.73
2019-03-04T15:23:36.715Z,4.53
2019-03-04T15:26:08.609Z,4.80
2019-03-04T15:28:40.858Z,7.07
2019-03-04T15:31:13.030Z,7.07
2019-03-04T15:33:45.309Z,4.37
2019-03-04T15:36:17.280Z,4.17
2019-03-04T15:38:49.355Z,5.23
2019-03-04T15:41:22.456Z,5.17
2019-03-04T15:43:54.679Z,4.50
2019-03-04T15:46:26.832Z,4.83
2019-03-04T15:48:59.039Z,5.00
2019-03-04T15:51:30.964Z,4.83
2019-03-04T15:54:03.030Z,3.47
2019-03-04T15:56:35.554Z,3.17
2019-03-04T15:59:08.306Z,4.80
2019-03-04T16:01:41.728Z,7.83
2019-03-04T16:04:16.440Z,2.60
2019-03-04T16:06:48.206Z,3.50
2019-03-04T16:09:23.162Z,4.13
2019-03-04T16:11:54.929Z,4.03
2019-03-04T16:14:26.882Z,4.97
2019-03-04T16:16:58.728Z,6.10
2019-03-04T16:19:30.878Z,5.73
2019-03-04T16:22:02.800Z,5.93
2019-03-04T16:24:34.899Z,4.83
2019-03-04T16:27:13.829Z,7.80
2019-03-04T16:29:45.753Z,7.00
2019-03-04T16:32:17.522Z,6.93
2019-03-04T16:34:49.422Z,5.53
2019-03-04T16:37:21.422Z,10.10
2019-03-04T16:39:53.627Z,9.67
2019-03-04T16:42:25.418Z,10.97
2019-03-04T16:44:57.304Z,12.03
2019-03-04T16:47:29.329Z,10.47
2019-03-04T16:50:01.497Z,9.23
2019-03-04T16:52:33.747Z,7.07
2019-03-04T16:55:05.940Z,13.10
2019-03-04T16:57:37.887Z,8.73
2019-03-04T17:00:14.209Z,10.63
2019-03-04T17:02:46.485Z,10.50
2019-03-04T17:05:20.302Z,8.47
2019-03-04T17:07:52.488Z,9.30
2019-03-04T17:10:25.279Z,8.40
2019-03-04T17:12:58.011Z,9.27
2019-03-04T17:15:30.484Z,8.77
2019-03-04T17:18:02.739Z,10.53
2019-03-04T17:20:35.005Z,9.57
2019-03-04T17:23:07.764Z,7.67
2019-03-04T17:25:40.229Z,11.77
2019-03-04T17:28:12.529Z,7.63
2019-03-04T17:30:44.662Z,7.13
2019-03-04T17:33:18.291Z,5.77
2019-03-04T17:35:50.783Z,13.40
2019-03-04T17:38:23.141Z,10.93
2019-03-04T17:40:55.905Z,12.50
2019-03-04T17:43:28.057Z,8.20
2019-03-04T17:46:00.390Z,7.90
2019-03-04T17:48:33.632Z,8.83
2019-03-04T17:51:06.288Z,7.33
2019-03-04T17:53:39.069Z,8.63
2019-03-04T17:56:11.907Z,8.33
2019-03-04T17:58:45.123Z,9.03
2019-03-04T18:01:19.177Z,8.43
2019-03-04T18:03:52.119Z,9.37
2019-03-04T18:06:25.830Z,6.30
2019-03-04T18:08:58.691Z,8.37
2019-03-04T18:11:31.886Z,9.63
2019-03-04T18:14:05.196Z,7.13
2019-03-04T18:16:37.958Z,6.77
2019-03-04T18:19:11.389Z,5.07
2019-03-04T18:21:44.113Z,6.17
2019-03-04T18:24:16.897Z,9.20
2019-03-04T18:26:57.820Z,7.53
2019-03-04T18:30:32.651Z,9.77
2019-03-04T18:34:16.277Z,7.20
2019-03-04T18:37:41.625Z,7.20
2019-03-04T18:41:31.201Z,7.43
2019-03-04T18:45:03.121Z,9.23
2019-03-04T18:48:26.177Z,7.93
2019-03-04T18:50:58.818Z,8.27
2019-03-04T18:53:32.220Z,10.60
2019-03-04T18:56:05.234Z,6.33
2019-03-04T18:58:37.473Z,8.17
2019-03-04T19:01:10.454Z,6.20
2019-03-04T19:03:42.825Z,3.43
2019-03-04T19:06:16.212Z,3.83
2019-03-04T19:08:48.859Z,8.17
2019-03-04T19:11:20.899Z,3.67
2019-03-04T19:13:53.268Z,7.60
2019-03-04T19:16:25.538Z,6.17
2019-03-04T19:18:57.862Z,4.60
2019-03-04T19:21:30.038Z,5.87
2019-03-04T19:24:02.734Z,5.30
2019-03-04T19:26:35.038Z,5.30
2019-03-04T19:29:07.765Z,2.40
2019-03-04T19:31:41.010Z,4.60
2019-03-04T19:34:13.933Z,2.33
2019-03-04T19:36:46.508Z,3.83
2019-03-04T19:39:19.949Z,5.07
2019-03-04T19:41:52.228Z,7.80
2019-03-04T19:44:24.577Z,4.63
2019-03-04T19:46:56.849Z,4.53
2019-03-04T19:49:29.500Z,3.87
2019-03-04T19:52:01.907Z,5.03
2019-03-04T19:54:34.378Z,5.27
2019-03-04T19:57:06.587Z,3.93
2019-03-04T19:59:38.763Z,6.27
2019-03-04T20:02:11.920Z,3.13
2019-03-04T20:04:45.437Z,3.97
2019-03-04T20:07:17.880Z,4.27
2019-03-04T20:09:50.273Z,4.23
2019-03-04T20:12:22.499Z,4.50
2019-03-04T20:14:54.803Z,3.77
2019-03-04T20:17:27.858Z,6.50
2019-03-04T20:19:59.985Z,5.03
2019-03-04T20:22:32.094Z,2.97
2019-03-04T20:25:04.931Z,4.73
2019-03-04T20:27:37.353Z,5.57
2019-03-04T20:30:10.972Z,4.20
2019-03-04T20:32:43.350Z,4.40
2019-03-04T20:35:16.832Z,6.53
2019-03-04T20:37:51.858Z,5.10
2019-03-04T20:40:25.022Z,3.93
2019-03-04T20:42:57.908Z,3.87
2019-03-04T20:45:30.566Z,5.90
2019-03-04T20:48:02.645Z,5.43
2019-03-04T20:50:34.726Z,3.30
2019-03-04T20:53:06.911Z,5.00
2019-03-04T20:55:38.976Z,2.87
2019-03-04T20:58:10.911Z,5.20
2019-03-04T21:00:43.653Z,3.53
2019-03-04T21:03:15.838Z,3.83
2019-03-04T21:05:48.092Z,3.50
2019-03-04T21:08:20.377Z,2.67
2019-03-04T21:10:52.640Z,4.23
2019-03-04T21:13:35.077Z,7.50
2019-03-04T21:16:00.677Z,3.73
2019-03-04T21:18:32.740Z,5.53
2019-03-04T21:21:06.444Z,2.97
2019-03-04T21:23:40.491Z,5.67
2019-03-04T21:26:24.509Z,4.20
2019-03-04T21:29:49.946Z,4.83
2019-03-04T21:33:09.402Z,3.80
2019-03-04T21:36:34.195Z,4.70
2019-03-04T21:39:08.196Z,4.30
2019-03-04T21:42:22.852Z,11.50
2019-03-04T21:45:42.059Z,7.10
2019-03-04T21:48:32.644Z,3.17
2019-03-04T21:51:38.452Z,5.40
2019-03-04T21:54:10.856Z,4.90
2019-03-04T21:57:25.479Z,6.97
2019-03-04T21:59:57.677Z,8.17
2019-03-04T22:02:58.579Z,6.03
2019-03-04T22:05:30.806Z,4.37
2019-03-04T22:08:02.940Z,4.10
2019-03-04T22:10:35.251Z,5.63
2019-03-04T22:13:07.706Z,4.67
2019-03-04T22:15:39.576Z,3.00
2019-03-04T22:18:13.100Z,4.90
2019-03-04T22:20:46.089Z,4.33
2019-03-04T22:23:18.229Z,5.57
2019-03-04T22:26:01.305Z,4.03
2019-03-04T22:28:24.118Z,5.87
2019-03-04T22:30:55.904Z,3.90
2019-03-04T22:33:27.813Z,3.17
2019-03-04T22:35:59.671Z,5.93
2019-03-04T22:38:31.875Z,5.87
2019-03-04T22:41:04.079Z,7.17
2019-03-04T22:43:35.962Z,7.90
2019-03-04T22:46:07.839Z,7.80
2019-03-04T22:48:39.747Z,5.80
2019-03-04T22:51:11.650Z,6.00
2019-03-04T22:53:43.767Z,5.07
2019-03-04T22:56:15.893Z,5.20
2019-03-04T22:58:47.970Z,6.93
2019-03-04T23:01:59.480Z,4.37
2019-03-04T23:05:13.940Z,6.10
2019-03-04T23:07:52.985Z,5.10
2019-03-04T23:10:49.785Z,9.80
2019-03-04T23:14:06.846Z,8.00
2019-03-04T23:16:39.100Z,6.80
2019-03-04T23:19:11.025Z,8.13
2019-03-04T23:21:43.266Z,7.10
2019-03-04T23:24:15.142Z,4.40
2019-03-04T23:26:47.655Z,4.83
2019-03-04T23:29:19.767Z,6.17
2019-03-04T23:31:51.706Z,4.97
2019-03-04T23:34:24.444Z,11.43
2019-03-04T23:36:56.532Z,5.83
2019-03-04T23:39:28.320Z,6.27
2019-03-04T23:42:00.684Z,4.63
2019-03-04T23:44:32.486Z,5.40
2019-03-04T23:47:04.427Z,4.97
2019-03-04T23:49:36.268Z,5.03
2019-03-04T23:52:08.193Z,4.87
2019-03-04T23:54:39.979Z,4.60
2019-03-04T23:57:12.217Z,5.10
2019-03-04T23:59:44.225Z,2.90
